ADDS METAR Data INFO
IDs: Format: Raw Decoded Include TAF

Data at: 0259 UTC 17 Jan 2018

KM30 170255Z AUTO 32003KT 10SM OVC048 M13/M17 A3070 RMK AO2 T11321171
KM30 170235Z AUTO 00000KT 10SM OVC048 M13/M17 A3070 RMK AO2 T11351171
KM30 170215Z AUTO 00000KT 10SM OVC050 M13/M17 A3070 RMK AO2 T11311171
KM30 170155Z AUTO 00000KT 10SM SCT035 BKN050 M13/M17 A3070 RMK AO2 T11351175
KM30 170135Z AUTO 00000KT 10SM BKN035 M13/M17 A3070 RMK AO2 T11261173
KM30 170110Z AUTO 00000KT 10SM OVC035 M12/M17 A3070 RMK AO2 T11221170
KM30 170055Z AUTO 00000KT 10SM OVC035 M12/M17 A3069 RMK AO2 T11211170
KM30 170035Z AUTO 33004KT 10SM OVC033 M12/M17 A3068 RMK AO2 T11201169
KM30 170015Z AUTO 34005KT 10SM OVC033 M12/M17 A3068 RMK AO2 T11171168
KM30 162355Z AUTO 32005KT 10SM BKN030 OVC035 M12/M17 A3068 RMK AO2 T11161173 11110 21123
KM30 162335Z AUTO 31004KT 10SM OVC031 M11/M17 A3068 RMK AO2 T11151175
KM30 162315Z AUTO 30007KT 10SM OVC033 M11/M17 A3067 RMK AO2 T11131175
KM30 162255Z AUTO 31004KT 10SM OVC033 M11/M18 A3067 RMK AO2 T11121177
KM30 162235Z AUTO 31004KT 10SM OVC035 M11/M18 A3066 RMK AO2 T11121180
KM30 162215Z AUTO 32004KT 10SM OVC035 M11/M18 A3066 RMK AO2 T11131180
KM30 162155Z AUTO 33006KT 10SM OVC035 M11/M18 A3065 RMK AO2 T11111180
KM30 162135Z AUTO 25003KT 10SM OVC033 M11/M18 A3065 RMK AO2 T11111183
KM30 162115Z AUTO 26003KT 10SM OVC033 M11/M18 A3065 RMK AO2 T11111185
KM30 162055Z AUTO 28006KT 10SM BKN033 M11/M19 A3065 RMK AO2 T11121188
KM30 162035Z AUTO 28007KT 10SM CLR M11/M19 A3064 RMK AO2 T11101188
KM30 162015Z AUTO 27007KT 10SM CLR M11/M19 A3065 RMK AO2 T11101189
KM30 161955Z AUTO 26003KT 10SM CLR M11/M19 A3064 RMK AO2 T11131192
KM30 161935Z AUTO 34003KT 10SM CLR M11/M19 A3065 RMK AO2 T11151192
KM30 161915Z AUTO 29003KT 10SM CLR M11/M19 A3064 RMK AO2 T11151195
KM30 161855Z AUTO 31007KT 10SM CLR M12/M19 A3065 RMK AO2 T11161192
KM30 161835Z AUTO 31003KT 10SM CLR M12/M19 A3065 RMK AO2 T11191195
KM30 161815Z AUTO 27003KT 10SM CLR M12/M20 A3066 RMK AO2 T11211198
KM30 161755Z AUTO 30004KT 10SM CLR M12/M20 A3067 RMK AO2 T11231197 11123 21160
KM30 161735Z AUTO 00000KT 10SM CLR M13/M20 A3068 RMK AO2 T11271199
KM30 161715Z AUTO 34006KT 10SM CLR M13/M20 A3068 RMK AO2 T11311200
KM30 161655Z AUTO 32004KT 10SM CLR M13/M20 A3069 RMK AO2 T11351199
KM30 161635Z AUTO 35006KT 10SM CLR M14/M20 A3069 RMK AO2 T11361200
KM30 161615Z AUTO 34006KT 10SM CLR M14/M20 A3070 RMK AO2 T11381200
KM30 161555Z AUTO 35005KT 10SM CLR M14/M20 A3070 RMK AO2 T11411201
KM30 161535Z AUTO 32006KT 7SM CLR M14/M20 A3070 RMK AO2 T11431202
KM30 161515Z AUTO 32007KT 10SM CLR M15/M20 A3070 RMK AO2 T11461200
KM30 161455Z AUTO 32005KT 10SM CLR M15/M20 A3070 RMK AO2 T11471200
KM30 161435Z AUTO 32006KT 10SM CLR M15/M20 A3069 RMK AO2 T11531202
KM30 161415Z AUTO 32003KT 10SM CLR M15/M20 A3068 RMK AO2 T11551200
KM30 161355Z AUTO 32003KT 10SM CLR M16/M20 A3068 RMK AO2 T11581200
KM30 161335Z AUTO 32004KT 10SM CLR M15/M20 A3068 RMK AO2 T11541201
KM30 161315Z AUTO 31003KT 10SM CLR M15/M20 A3068 RMK AO2 T11511201
KM30 161255Z AUTO 33003KT 10SM CLR M15/M20 A3067 RMK AO2 T11471199
KM30 161235Z AUTO 33006KT 10SM CLR M14/M19 A3066 RMK AO2 T11401195
KM30 161215Z AUTO 33005KT 10SM CLR M14/M19 A3066 RMK AO2 T11361192
KM30 161155Z AUTO 33006KT 10SM CLR M13/M19 A3066 RMK AO2 70001 T11351190 11101 21137
KM30 161135Z AUTO 32006KT 10SM CLR M13/M19 A3065 RMK AO2 T11351191
KM30 161115Z AUTO 33007KT 10SM CLR M13/M19 A3064 RMK AO2 T11301188
KM30 161055Z AUTO 34009KT 10SM CLR M12/M18 A3063 RMK AO2 T11251182
KM30 161035Z AUTO 32007KT 10SM SCT120 M12/M18 A3063 RMK AO2 T11201180
KM30 161015Z AUTO 31008KT 10SM BKN110 M12/M17 A3062 RMK AO2 T11161175
KM30 160955Z AUTO 34007KT 10SM OVC110 M11/M17 A3062 RMK AO2 T11151173
KM30 160935Z AUTO 34008KT 10SM OVC110 M11/M17 A3061 RMK AO2 T11131171
KM30 160915Z AUTO 32006KT 10SM OVC110 M11/M17 A3061 RMK AO2 T11111170
KM30 160855Z AUTO 32006KT 10SM OVC110 M11/M17 A3061 RMK AO2 T11101170
KM30 160835Z AUTO 34008KT 10SM OVC110 M11/M17 A3060 RMK AO2 T11081169
KM30 160815Z AUTO 32009KT 10SM BKN120 M11/M17 A3060 RMK AO2 T11081169
KM30 160755Z AUTO 32007KT 10SM OVC110 M11/M17 A3060 RMK AO2 T11061166
KM30 160735Z AUTO 34007KT 10SM SCT080 OVC100 M10/M16 A3059 RMK AO2 T11051165
KM30 160715Z AUTO 34007KT 10SM SCT060 OVC075 M10/M17 A3058 RMK AO2 T11051168
KM30 160655Z AUTO 34008G14KT 10SM OVC060 M10/M17 A3058 RMK AO2 T11051169
KM30 160635Z AUTO 33011KT 10SM OVC070 M10/M17 A3058 RMK AO2 T11031170
KM30 160615Z AUTO 33009KT 10SM OVC070 M10/M17 A3058 RMK AO2 T11031169
KM30 160555Z AUTO 34011G15KT 10SM BKN070 OVC080 M10/M17 A3058 RMK AO2 T11011167 11041 21101 410081101
KM30 160535Z AUTO 34010G17KT 10SM OVC080 M10/M16 A3057 RMK AO2 T11001165
KM30 160515Z AUTO 33008G14KT 10SM OVC080 M09/M16 A3057 RMK AO2 T10951156
KM30 160455Z AUTO 32009G17KT 10SM SCT035 SCT046 OVC075 M09/M15 A3056 RMK AO2 T10911154
KM30 160435Z AUTO 34006KT 10SM SCT035 BKN055 OVC075 M09/M15 A3055 RMK AO2 T10871150
KM30 160415Z AUTO 33011KT 10SM BKN050 OVC070 M08/M14 A3054 RMK AO2 T10841145
KM30 160355Z AUTO 34013G17KT 10SM SCT027 SCT034 OVC048 M08/M14 A3054 RMK AO2 T10801140
KM30 160335Z AUTO 35009G14KT 7SM -SN BKN029 OVC035 M08/M13 A3053 RMK AO2 T10771130
KM30 160315Z AUTO 35013G17KT 4SM -SN BKN025 OVC031 M07/M12 A3052 RMK AO2 T10721118
KM30 160255Z AUTO 34011G17KT 4SM -SN BKN028 OVC032 M06/M09 A3051 RMK AO2 T10611095
KM30 160235Z AUTO 34006KT 3SM -SN OVC027 M06/M08 A3051 RMK AO2 T10621081
KM30 160215Z AUTO 34005KT 3SM -SN OVC025 M06/M08 A3050 RMK AO2 T10611080
KM30 160155Z AUTO 33006KT 3SM -SN OVC025 M06/M08 A3049 RMK AO2 T10601083
KM30 160135Z AUTO 34009G14KT 2 1/2SM -SN BKN021 OVC027 M05/M07 A3048 RMK AO2 T10551074
KM30 160115Z AUTO 35007KT 3SM -SN SCT008 BKN020 OVC029 M05/M07 A3047 RMK AO2 T10551069
KM30 160055Z AUTO 35007KT 1 1/2SM -SN BKN007 OVC013 M05/M06 A3046 RMK AO2 T10511063
KM30 160035Z AUTO 33008KT 1 1/2SM -SN SCT007 OVC013 M05/M06 A3045 RMK AO2 T10491064
KM30 160015Z AUTO 33007KT 1 1/2SM -SN SCT007 OVC015 M04/M06 A3045 RMK AO2 T10451060
KM30 152355Z AUTO 33007KT 1 1/2SM -SN BKN007 OVC015 M04/M05 A3044 RMK AO2 60001 T10411053 11008 21041
KM30 152335Z AUTO 34007KT 2SM -SN SCT007 BKN019 OVC026 M04/M05 A3043 RMK AO2 T10381051
KM30 152315Z AUTO 34009KT 1 1/4SM -SN BKN020 OVC025 M04/M05 A3042 RMK AO2 T10361051
KM30 152255Z AUTO 34007KT 1SM -SN BKN012 OVC020 M03/M04 A3041 RMK AO2 T10331045
KM30 152235Z AUTO 35005KT 3/4SM -SN BKN006 OVC016 M03/M04 A3040 RMK AO2 T10311042
KM30 152215Z AUTO 34006KT 1SM -SN BKN005 OVC011 M03/M04 A3040 RMK AO2 T10281040
KM30 152155Z AUTO 33009KT 3/4SM -SN OVC005 M01/M02 A3039 RMK AO2 P0001 T10091019
KM30 152135Z AUTO 26005KT 1SM -SN OVC005 M01/M02 A3038 RMK AO2 P0001 T10101020
KM30 152115Z AUTO 25004KT 1SM -SN OVC005 M01/M02 A3037 RMK AO2 T10081019
KM30 152055Z AUTO 26005KT 3/4SM -SN OVC007 M01/M02 A3037 RMK AO2 T10101020
KM30 152035Z AUTO 25004KT 3/4SM -SN OVC007 M01/M02 A3036 RMK AO2 T10101020
KM30 152015Z AUTO 22004KT 1SM -SN OVC007 M01/M02 A3035 RMK AO2 T10101021
KM30 151955Z AUTO 23006KT 1SM -SN OVC007 M01/M02 A3035 RMK AO2 T10081021
KM30 151935Z AUTO 24006KT 1SM -SN OVC007 M01/M02 A3034 RMK AO2 T10101024
KM30 151915Z AUTO 24006KT 1SM -SN OVC007 M01/M02 A3034 RMK AO2 T10101025
KM30 151855Z AUTO 24007KT 1SM -SN OVC007 M01/M03 A3034 RMK AO2 T10111026
KM30 151835Z AUTO 25006KT 1SM -SN OVC007 M01/M03 A3034 RMK AO2 T10121027
KM30 151815Z AUTO 23008KT 1 1/4SM -SN OVC009 M01/M03 A3034 RMK AO2 T10121028
KM30 151755Z AUTO 24009KT 3SM -SN OVC007 M01/M03 A3035 RMK AO2 T10121031 11012 21037
KM30 151735Z AUTO 24008KT 2SM -SN OVC007 M01/M03 A3035 RMK AO2 T10151031
KM30 151715Z AUTO 25006KT 1SM -SN OVC007 M02/M03 A3036 RMK AO2 T10161031
KM30 151655Z AUTO 24007KT 3/4SM -SN OVC007 M02/M03 A3036 RMK AO2 T10161030
KM30 151635Z AUTO 24007KT 1/2SM -SN OVC007 M02/M03 A3036 RMK AO2 T10201032
KM30 151615Z AUTO 24007KT 3/4SM -SN OVC009 M02/M03 A3036 RMK AO2 T10221035
KM30 151555Z AUTO 22008KT 1/2SM SN OVC011 M02/M04 A3035 RMK AO2 T10251039
KM30 151535Z AUTO 22006KT 1 1/4SM -SN BKN017 OVC024 M03/M04 A3035 RMK AO2 T10261044
KM30 151515Z AUTO 21007KT 1 1/2SM -SN BKN020 BKN027 OVC033 M03/M05 A3034 RMK AO2 T10301048